Time;durP1;ratioP1;P1;durP2;ratioP2;P2;SDS_P1;SDS_P2;PMS_P1;PMS_P2;Temp;Humidity;BMP_temperature;BMP_pressure;BME280_temperature;BME280_humidity;BME280_pressure;Samples;Min_cycle;Max_cycle;Signal;HPM_P1;HPM_P2
2022/12/06 00:01:07;;;;;;;21.93;9.10;;;;;;;3.63;100.00;96472.41;5057050;28;20227;-70
2022/12/06 00:03:33;;;;;;;20.40;9.13;;;;;;;3.47;100.00;96473.81;5056478;28;20614;-70
2022/12/06 00:06:03;;;;;;;21.93;8.63;;;;;;;3.62;100.00;96470.75;5057046;28;20355;-70
2022/12/06 00:08:30;;;;;;;21.13;9.40;;;;;;;3.51;100.00;96475.19;5057125;28;20303;-70
2022/12/06 00:11:03;;;;;;;23.90;10.37;;;;;;;3.65;100.00;96471.31;5057708;28;20249;-70
2022/12/06 00:13:30;;;;;;;22.00;9.20;;;;;;;3.52;100.00;96471.66;5057417;28;20311;-70
2022/12/06 00:16:00;;;;;;;27.60;11.27;;;;;;;3.59;100.00;96473.63;5057664;28;20314;-68
2022/12/06 00:18:27;;;;;;;25.23;10.33;;;;;;;3.44;100.00;96480.09;5057786;28;20742;-70
2022/12/06 00:20:53;;;;;;;23.50;10.23;;;;;;;3.41;100.00;96476.91;5056634;28;20803;-70
2022/12/06 00:23:21;;;;;;;20.73;9.10;;;;;;;3.11;100.00;96474.25;5056812;28;20339;-70
2022/12/06 00:25:48;;;;;;;22.63;9.57;;;;;;;2.98;100.00;96464.97;5055379;28;21248;-70
2022/12/06 00:28:14;;;;;;;27.43;10.27;;;;;;;3.08;100.00;96466.69;5056674;28;20326;-70
2022/12/06 00:30:41;;;;;;;21.20;9.60;;;;;;;3.14;100.00;96463.59;5056768;28;20326;-70
2022/12/06 00:33:08;;;;;;;22.37;9.37;;;;;;;3.18;100.00;96460.63;5056526;28;20295;-70
2022/12/06 00:35:34;;;;;;;22.90;9.37;;;;;;;3.13;100.00;96459.31;5056502;28;20255;-70
2022/12/06 00:38:01;;;;;;;23.77;9.90;;;;;;;3.06;100.00;96453.81;5057060;28;20350;-72
2022/12/06 00:40:29;;;;;;;23.80;10.03;;;;;;;3.18;100.00;96451.97;5056434;28;20342;-73
2022/12/06 00:42:56;;;;;;;22.80;9.30;;;;;;;3.12;100.00;96450.69;5057160;28;20319;-72
2022/12/06 00:45:22;;;;;;;24.20;10.13;;;;;;;3.16;100.00;96443.47;5055369;28;20306;-72
2022/12/06 00:47:49;;;;;;;23.73;9.67;;;;;;;3.17;100.00;96439.88;5056279;28;20279;-72
2022/12/06 00:50:16;;;;;;;24.00;10.00;;;;;;;3.24;100.00;96441.03;5057044;28;20235;-72
2022/12/06 00:52:42;;;;;;;22.30;10.20;;;;;;;3.26;100.00;96433.91;5057018;28;20287;-72
2022/12/06 00:55:09;;;;;;;22.90;10.07;;;;;;;3.15;100.00;96439.22;5054682;28;20323;-70
2022/12/06 00:57:37;;;;;;;23.43;9.90;;;;;;;3.14;100.00;96442.75;5056325;28;20291;-71
2022/12/06 01:00:05;;;;;;;28.20;9.53;;;;;;;3.16;100.00;96439.06;5057030;28;20291;-71
2022/12/06 01:02:31;;;;;;;23.97;9.77;;;;;;;3.02;100.00;96433.38;5056133;28;20389;-72
2022/12/06 01:04:58;;;;;;;28.77;10.63;;;;;;;2.98;100.00;96433.75;5055677;28;20235;-72
2022/12/06 01:07:24;;;;;;;26.57;10.40;;;;;;;3.08;100.00;96438.06;5056553;28;20343;-71
2022/12/06 01:09:51;;;;;;;29.33;10.57;;;;;;;2.99;100.00;96438.81;5056202;28;20349;-72
2022/12/06 01:12:18;;;;;;;26.67;10.47;;;;;;;2.90;100.00;96444.78;5056261;28;20290;-71
2022/12/06 01:14:46;;;;;;;26.77;10.50;;;;;;;2.97;100.00;96443.34;5058061;28;20603;-72
2022/12/06 01:17:12;;;;;;;24.60;10.20;;;;;;;3.01;100.00;96441.31;5060152;28;21017;-71
2022/12/06 01:19:39;;;;;;;23.37;9.50;;;;;;;2.99;100.00;96449.22;5061054;28;20206;-71
2022/12/06 01:22:05;;;;;;;25.80;10.97;;;;;;;2.98;100.00;96458.00;5060889;28;20218;-71
2022/12/06 01:24:32;;;;;;;20.53;8.10;;;;;;;3.00;100.00;96448.28;5059194;28;20200;-71
2022/12/06 01:26:58;;;;;;;29.63;10.07;;;;;;;3.03;100.00;96453.25;5060018;28;20235;-71
2022/12/06 01:29:25;;;;;;;25.47;10.13;;;;;;;3.06;100.00;96446.00;5060330;28;20211;-71
2022/12/06 01:31:53;;;;;;;33.27;11.40;;;;;;;3.09;100.00;96443.16;5060347;28;20735;-71
2022/12/06 01:34:19;;;;;;;22.87;8.93;;;;;;;3.01;100.00;96444.72;5059113;28;20605;-71
2022/12/06 01:36:46;;;;;;;32.03;10.97;;;;;;;2.89;100.00;96443.16;5060489;28;20232;-71
2022/12/06 01:39:12;;;;;;;31.50;11.20;;;;;;;2.91;100.00;96446.44;5060053;28;20208;-71
2022/12/06 01:41:39;;;;;;;30.07;11.53;;;;;;;2.90;100.00;96444.78;5059726;28;20463;-71
2022/12/06 01:44:07;;;;;;;29.50;11.23;;;;;;;2.97;100.00;96439.91;5059403;28;20211;-71
2022/12/06 01:46:36;;;;;;;30.80;9.87;;;;;;;2.98;100.00;96450.19;5059413;28;20222;-71
2022/12/06 01:49:09;;;;;;;28.73;11.17;;;;;;;3.01;100.00;96444.72;5059675;28;20202;-71
2022/12/06 01:51:36;;;;;;;28.80;10.87;;;;;;;2.82;100.00;96457.59;5060210;28;20204;-71
2022/12/06 01:54:06;;;;;;;32.13;11.47;;;;;;;2.78;100.00;96452.78;5059051;28;20226;-71
2022/12/06 01:56:33;;;;;;;30.93;10.90;;;;;;;2.84;100.00;96450.50;5058616;28;20234;-71
2022/12/06 01:59:00;;;;;;;28.53;10.37;;;;;;;2.81;100.00;96437.72;5059867;28;20209;-70
2022/12/06 02:01:28;;;;;;;36.30;11.00;;;;;;;2.93;100.00;96435.88;5060914;28;20664;-71
2022/12/06 02:03:55;;;;;;;31.17;11.17;;;;;;;2.82;100.00;96439.38;5058967;28;20227;-71
2022/12/06 02:06:23;;;;;;;34.23;10.30;;;;;;;2.93;100.00;96430.69;5058335;28;20223;-71
2022/12/06 02:08:51;;;;;;;26.50;9.90;;;;;;;2.97;100.00;96438.13;5059394;28;20215;-71
2022/12/06 02:11:18;;;;;;;30.80;10.77;;;;;;;2.72;100.00;96438.47;5059704;28;20208;-71
2022/12/06 02:13:45;;;;;;;28.90;10.10;;;;;;;2.95;100.00;96434.00;5059316;28;20245;-71
2022/12/06 02:16:23;;;;;;;30.63;10.90;;;;;;;2.98;100.00;96431.13;5060807;28;20239;-71
2022/12/06 02:18:56;;;;;;;30.90;10.83;;;;;;;2.95;100.00;96424.41;5060408;28;20212;-70
2022/12/06 02:21:36;;;;;;;39.47;11.93;;;;;;;3.02;100.00;96425.56;5060679;28;20215;-69
2022/12/06 02:24:42;;;;;;;32.00;9.93;;;;;;;2.97;100.00;96409.50;5059978;28;20784;-71
2022/12/06 02:27:37;;;;;;;35.53;11.43;;;;;;;2.94;100.00;96406.31;5060225;28;20223;-71
2022/12/06 02:30:11;;;;;;;29.50;10.63;;;;;;;2.94;100.00;96399.34;5060360;28;21298;-69
2022/12/06 02:32:46;;;;;;;31.63;9.50;;;;;;;3.01;100.00;96402.28;5061112;28;20687;-70
2022/12/06 02:35:22;;;;;;;28.43;9.27;;;;;;;3.01;100.00;96408.28;5060606;28;20222;-71
2022/12/06 02:37:53;;;;;;;34.83;9.87;;;;;;;3.15;100.00;96400.97;5061005;28;20217;-71
2022/12/06 02:40:25;;;;;;;31.40;10.90;;;;;;;3.17;100.00;96393.88;5060654;28;20200;-71
2022/12/06 02:42:56;;;;;;;36.13;12.10;;;;;;;3.18;100.00;96394.69;5060930;28;20750;-69
2022/12/06 02:45:27;;;;;;;33.80;10.83;;;;;;;3.25;100.00;96399.25;5059977;28;20227;-71
2022/12/06 02:48:00;;;;;;;35.00;12.00;;;;;;;3.30;100.00;96394.47;5060856;28;20210;-71
2022/12/06 02:50:30;;;;;;;32.93;11.17;;;;;;;3.36;100.00;96390.53;5060488;28;20197;-71
2022/12/06 02:53:01;;;;;;;36.80;12.97;;;;;;;3.36;100.00;96387.91;5060729;28;20679;-71
2022/12/06 02:55:29;;;;;;;33.03;10.13;;;;;;;3.23;100.00;96387.31;5059549;28;20837;-70
2022/12/06 02:57:56;;;;;;;35.93;12.20;;;;;;;3.14;100.00;96382.88;5060913;28;20209;-70
2022/12/06 03:00:35;;;;;;;36.20;10.80;;;;;;;3.28;100.00;96388.56;5060023;28;20212;-71
2022/12/06 03:03:26;;;;;;;32.77;10.30;;;;;;;3.12;100.00;96384.81;5059929;28;20207;-69
2022/12/06 03:06:10;;;;;;;31.70;11.10;;;;;;;3.14;100.00;96388.09;5058580;28;20309;-70
2022/12/06 03:08:42;;;;;;;35.43;11.87;;;;;;;3.24;100.00;96383.75;5059285;28;20215;-71
2022/12/06 03:11:10;;;;;;;37.33;11.77;;;;;;;3.09;100.00;96392.84;5058676;28;20217;-68
2022/12/06 03:13:45;;;;;;;34.47;11.77;;;;;;;3.28;100.00;96387.75;5059922;28;20204;-70
2022/12/06 03:16:22;;;;;;;29.90;10.80;;;;;;;3.24;100.00;96384.56;5058538;28;20695;-71
2022/12/06 03:18:58;;;;;;;32.57;11.70;;;;;;;3.38;100.00;96380.81;5058771;28;20206;-71
2022/12/06 03:21:32;;;;;;;33.67;10.97;;;;;;;3.29;100.00;96387.63;5060058;28;20207;-69
2022/12/06 03:23:59;;;;;;;27.23;10.33;;;;;;;3.27;100.00;96383.50;5058978;28;20218;-71
2022/12/06 03:26:30;;;;;;;36.77;11.33;;;;;;;3.44;100.00;96383.72;5059766;28;20313;-71
2022/12/06 03:28:59;;;;;;;33.90;11.27;;;;;;;3.47;100.00;96380.84;5060223;28;20207;-69
2022/12/06 03:31:28;;;;;;;34.53;11.83;;;;;;;3.44;100.00;96385.53;5060239;28;20328;-69
2022/12/06 03:34:01;;;;;;;35.53;11.20;;;;;;;3.46;100.00;96378.38;5059505;28;20211;-71
2022/12/06 03:36:29;;;;;;;31.87;10.70;;;;;;;3.39;100.00;96372.06;5059858;28;20223;-71
2022/12/06 03:38:59;;;;;;;35.13;11.93;;;;;;;3.44;100.00;96369.88;5060236;28;20219;-71
2022/12/06 03:41:30;;;;;;;31.57;11.70;;;;;;;3.21;100.00;96373.63;5060593;28;20219;-71
2022/12/06 03:43:58;;;;;;;28.73;9.90;;;;;;;3.25;100.00;96369.78;5059589;28;20216;-69
2022/12/06 03:46:30;;;;;;;32.53;12.07;;;;;;;2.98;100.00;96373.88;5059473;28;20223;-71
2022/12/06 03:49:02;;;;;;;28.17;9.70;;;;;;;3.10;100.00;96365.88;5057210;28;20204;-72
2022/12/06 03:51:30;;;;;;;25.17;9.00;;;;;;;3.11;100.00;96370.13;5057579;28;20212;-72
2022/12/06 03:53:59;;;;;;;35.77;10.90;;;;;;;3.20;100.00;96371.97;5057601;28;20203;-71
2022/12/06 03:56:26;;;;;;;32.67;12.07;;;;;;;3.15;100.00;96368.91;5057424;28;20234;-72
2022/12/06 03:58:53;;;;;;;23.33;9.10;;;;;;;3.14;100.00;96362.91;5057517;28;20211;-72
2022/12/06 04:01:19;;;;;;;30.80;9.90;;;;;;;2.86;100.00;96362.72;5057641;28;20212;-72
2022/12/06 04:03:46;;;;;;;30.27;11.40;;;;;;;3.09;100.00;96366.81;5056807;28;20206;-72
2022/12/06 04:06:14;;;;;;;35.07;12.47;;;;;;;3.17;100.00;96359.19;5057222;28;20230;-71
2022/12/06 04:08:41;;;;;;;42.80;12.37;;;;;;;3.04;100.00;96366.38;5057435;28;20223;-72
2022/12/06 04:11:07;;;;;;;36.33;11.80;;;;;;;3.03;100.00;96362.97;5057215;28;20208;-71
2022/12/06 04:13:34;;;;;;;34.67;11.17;;;;;;;2.78;100.00;96362.53;5056942;28;20201;-71
2022/12/06 04:16:01;;;;;;;29.93;9.10;;;;;;;2.72;100.00;96360.41;5058402;28;20242;-69
2022/12/06 04:18:27;;;;;;;36.63;11.97;;;;;;;2.74;100.00;96349.91;5057823;28;20199;-69
2022/12/06 04:23:46;;;;;;;38.17;11.23;;;;;;;2.89;100.00;96354.66;5058914;28;20668;-70
2022/12/06 04:26:15;;;;;;;31.60;10.47;;;;;;;2.71;100.00;96353.59;5057856;28;20228;-71
2022/12/06 04:39:42;;;;;;;30.00;10.10;;;;;;;2.94;100.00;96347.31;5057445;28;20287;-71
2022/12/06 04:44:52;;;;;;;36.93;11.83;;;;;;;2.76;100.00;96346.25;5057117;28;20214;-71
2022/12/06 04:47:19;;;;;;;23.40;8.93;;;;;;;2.54;100.00;96345.53;5057740;28;20223;-70
2022/12/06 04:49:45;;;;;;;32.00;11.40;;;;;;;2.41;100.00;96340.50;5056867;28;20206;-69
2022/12/06 04:52:12;;;;;;;28.97;10.57;;;;;;;2.40;100.00;96349.25;5056720;28;20206;-71
2022/12/06 04:54:39;;;;;;;34.40;10.63;;;;;;;2.48;100.00;96352.06;5056948;28;20224;-71
2022/12/06 04:57:09;;;;;;;31.43;10.60;;;;;;;2.64;100.00;96349.03;5056694;28;20236;-69
2022/12/06 04:59:37;;;;;;;30.37;10.53;;;;;;;2.68;100.00;96343.41;5056805;28;20239;-71
2022/12/06 05:02:04;;;;;;;33.30;11.10;;;;;;;2.48;100.00;96352.06;5057335;28;20205;-70
2022/12/06 05:04:30;;;;;;;37.33;12.23;;;;;;;2.56;100.00;96351.44;5057999;28;20201;-71
2022/12/06 05:06:57;;;;;;;29.87;9.33;;;;;;;2.22;100.00;96356.91;5056096;28;20614;-71
2022/12/06 05:09:24;;;;;;;27.83;8.43;;;;;;;2.22;100.00;96359.50;5056660;28;20634;-71
2022/12/06 05:11:51;;;;;;;34.60;11.20;;;;;;;2.14;100.00;96348.88;5056684;28;20206;-71
2022/12/06 05:14:19;;;;;;;15.53;6.40;;;;;;;2.17;100.00;96356.44;5055796;28;20206;-71
2022/12/06 05:16:46;;;;;;;27.83;11.37;;;;;;;2.10;100.00;96345.72;5055745;28;20316;-71
2022/12/06 05:19:13;;;;;;;30.37;11.43;;;;;;;2.04;100.00;96337.59;5056884;28;20211;-71
2022/12/06 05:21:39;;;;;;;31.73;10.07;;;;;;;1.94;100.00;96336.69;5056610;28;20204;-71
2022/12/06 05:24:06;;;;;;;31.83;10.00;;;;;;;1.97;100.00;96328.63;5055609;28;20200;-71
2022/12/06 05:26:33;;;;;;;36.53;11.90;;;;;;;2.16;100.00;96310.59;5056568;28;20223;-71
2022/12/06 05:28:59;;;;;;;37.00;12.87;;;;;;;2.23;100.00;96304.78;5056854;28;20209;-71
2022/12/06 05:31:27;;;;;;;35.60;11.67;;;;;;;2.38;100.00;96303.53;5056155;28;20661;-71
2022/12/06 05:33:54;;;;;;;32.70;11.37;;;;;;;2.20;100.00;96320.66;5055242;28;20209;-71
2022/12/06 05:36:23;;;;;;;26.57;8.37;;;;;;;2.29;100.00;96325.09;5057152;28;20711;-72
2022/12/06 05:38:51;;;;;;;32.43;12.67;;;;;;;2.26;100.00;96314.13;5056234;28;20219;-71
2022/12/06 05:41:18;;;;;;;29.47;11.87;;;;;;;2.21;100.00;96329.25;5055728;28;20758;-71
2022/12/06 05:43:44;;;;;;;28.33;10.53;;;;;;;2.11;100.00;96330.94;5056068;28;20572;-71
2022/12/06 05:46:11;;;;;;;32.43;11.27;;;;;;;2.17;100.00;96341.66;5056418;28;20218;-71
2022/12/06 05:48:39;;;;;;;29.83;9.70;;;;;;;2.17;100.00;96330.47;5056302;28;20205;-71
2022/12/06 05:51:05;;;;;;;34.47;12.70;;;;;;;2.20;100.00;96336.25;5056380;28;20959;-71
2022/12/06 05:53:32;;;;;;;24.20;9.13;;;;;;;2.19;100.00;96349.34;5055669;28;20197;-71
2022/12/06 05:56:05;;;;;;;36.23;10.60;;;;;;;2.28;100.00;96338.19;5055467;28;21014;-71
2022/12/06 05:58:31;;;;;;;30.37;11.03;;;;;;;2.25;100.00;96338.44;5056212;28;20197;-71
2022/12/06 06:00:58;;;;;;;41.13;13.40;;;;;;;2.40;100.00;96328.44;5058095;28;20806;-71
2022/12/06 06:03:24;;;;;;;44.97;14.17;;;;;;;2.44;100.00;96327.25;5059738;28;20213;-71
2022/12/06 06:05:57;;;;;;;34.57;11.07;;;;;;;2.54;100.00;96329.91;5060231;28;20216;-71
2022/12/06 06:08:23;;;;;;;37.13;13.10;;;;;;;2.31;100.00;96330.16;5060089;28;20212;-71
2022/12/06 06:10:50;;;;;;;49.63;16.20;;;;;;;2.37;100.00;96327.88;5060341;28;20209;-69
2022/12/06 06:13:16;;;;;;;33.00;12.87;;;;;;;2.27;100.00;96333.97;5060390;28;20217;-71
2022/12/06 06:15:43;;;;;;;26.47;10.10;;;;;;;2.17;100.00;96335.66;5058534;28;21355;-70
2022/12/06 06:18:09;;;;;;;28.27;9.93;;;;;;;2.32;100.00;96334.38;5059187;28;20196;-69
2022/12/06 06:20:36;;;;;;;65.97;21.00;;;;;;;2.20;100.00;96333.66;5059526;28;20438;-69
2022/12/06 06:23:04;;;;;;;73.07;23.77;;;;;;;2.48;100.00;96336.47;5061297;28;20675;-71
2022/12/06 06:25:30;;;;;;;39.23;12.93;;;;;;;2.35;100.00;96339.34;5060048;28;20253;-70
2022/12/06 06:27:57;;;;;;;49.93;15.60;;;;;;;2.37;100.00;96340.03;5060792;28;21140;-69
2022/12/06 06:30:23;;;;;;;57.73;18.33;;;;;;;2.39;100.00;96338.16;5060682;28;20214;-69
2022/12/06 06:32:50;;;;;;;55.87;19.63;;;;;;;2.41;100.00;96334.47;5060103;28;20212;-72
2022/12/06 06:35:17;;;;;;;31.97;12.47;;;;;;;2.15;100.00;96343.59;5058267;28;20228;-71
2022/12/06 06:37:43;;;;;;;28.80;11.57;;;;;;;2.27;100.00;96341.78;5059927;28;20671;-72
2022/12/06 06:40:12;;;;;;;44.03;17.47;;;;;;;2.43;100.00;96338.59;5058934;28;20211;-72
2022/12/06 06:42:38;;;;;;;25.73;9.60;;;;;;;2.23;100.00;96335.13;5058866;28;20195;-72
2022/12/06 06:45:06;;;;;;;29.93;9.50;;;;;;;2.34;100.00;96337.69;5058856;28;20203;-72
2022/12/06 06:47:32;;;;;;;29.90;9.50;;;;;;;2.30;100.00;96346.72;5059942;28;20210;-72
2022/12/06 06:49:59;;;;;;;34.53;10.43;;;;;;;2.36;100.00;96343.63;5058762;28;20210;-72
2022/12/06 06:52:25;;;;;;;27.10;10.53;;;;;;;2.34;100.00;96346.31;5059590;28;20208;-71
2022/12/06 06:54:52;;;;;;;30.30;11.57;;;;;;;2.40;100.00;96343.22;5058952;28;20207;-71
2022/12/06 06:57:20;;;;;;;31.13;10.40;;;;;;;2.33;100.00;96343.84;5058517;28;20227;-71
2022/12/06 06:59:46;;;;;;;22.27;7.50;;;;;;;1.92;100.00;96346.34;5058836;28;20216;-71
2022/12/06 07:02:13;;;;;;;53.67;14.03;;;;;;;1.92;100.00;96335.97;5059123;28;20234;-71
2022/12/06 07:04:41;;;;;;;24.77;8.60;;;;;;;2.04;100.00;96340.19;5058099;28;20208;-72
2022/12/06 07:07:07;;;;;;;22.93;8.27;;;;;;;1.92;100.00;96335.97;5057978;28;20273;-71
2022/12/06 07:09:34;;;;;;;26.20;9.50;;;;;;;2.06;100.00;96336.53;5058747;28;20207;-72
2022/12/06 07:12:01;;;;;;;22.77;8.90;;;;;;;2.17;100.00;96341.66;5057326;28;20994;-71
2022/12/06 07:14:28;;;;;;;22.90;8.20;;;;;;;2.22;100.00;96344.72;5057573;28;20207;-72
2022/12/06 07:16:55;;;;;;;17.77;7.93;;;;;;;2.33;100.00;96347.28;5058716;28;20241;-71
2022/12/06 07:19:22;;;;;;;23.43;9.30;;;;;;;2.26;100.00;96338.31;5059028;28;20214;-71
2022/12/06 07:21:49;;;;;;;43.60;14.63;;;;;;;2.24;100.00;96337.63;5058583;28;20218;-72
2022/12/06 07:24:16;;;;;;;25.87;9.57;;;;;;;2.32;100.00;96335.22;5058114;28;20296;-71
2022/12/06 07:26:42;;;;;;;28.80;9.80;;;;;;;2.38;100.00;96341.69;5058567;28;20227;-71
2022/12/06 07:29:09;;;;;;;26.63;9.93;;;;;;;2.56;100.00;96347.06;5058725;28;20297;-71
2022/12/06 07:31:39;;;;;;;43.97;14.20;;;;;;;2.63;100.00;96345.56;5058491;28;20205;-72
2022/12/06 07:34:05;;;;;;;37.70;13.47;;;;;;;2.58;100.00;96345.16;5057238;28;20656;-72
2022/12/06 07:36:33;;;;;;;31.73;12.40;;;;;;;2.49;100.00;96342.47;5057766;28;20266;-72
2022/12/06 07:39:00;;;;;;;29.73;10.70;;;;;;;2.50;100.00;96347.53;5058446;28;20213;-72
2022/12/06 07:46:59;;;;;;;30.77;11.10;;;;;;;2.44;100.00;96336.81;5058284;28;20305;-72
2022/12/06 07:49:26;;;;;;;30.70;11.17;;;;;;;2.48;100.00;96343.41;5058039;28;20215;-71
2022/12/06 07:51:54;;;;;;;24.37;10.10;;;;;;;2.37;100.00;96333.09;5057250;28;20216;-72
2022/12/06 07:54:21;;;;;;;31.43;10.63;;;;;;;2.43;100.00;96333.41;5056971;28;20211;-72
2022/12/06 07:56:47;;;;;;;29.07;9.33;;;;;;;2.46;100.00;96330.53;5057506;28;20234;-72
2022/12/06 07:59:14;;;;;;;30.30;11.10;;;;;;;2.46;100.00;96333.16;5057541;28;20206;-72
2022/12/06 08:01:42;;;;;;;30.40;10.13;;;;;;;2.71;100.00;96324.13;5057179;28;20229;-72
2022/12/06 08:04:10;;;;;;;44.93;11.30;;;;;;;2.76;100.00;96328.03;5057297;28;20264;-72
2022/12/06 08:06:37;;;;;;;32.50;11.57;;;;;;;2.81;100.00;96325.84;5057517;28;20234;-72
2022/12/06 08:09:04;;;;;;;31.43;10.23;;;;;;;2.72;100.00;96324.00;5057003;28;20205;-72
2022/12/06 08:11:31;;;;;;;28.37;9.97;;;;;;;2.71;100.00;96326.75;5057324;28;20195;-72
2022/12/06 08:13:57;;;;;;;31.40;11.10;;;;;;;2.63;100.00;96316.16;5056299;28;20712;-72
2022/12/06 08:16:24;;;;;;;28.67;10.73;;;;;;;2.67;100.00;96328.78;5056995;28;20235;-72
2022/12/06 08:18:51;;;;;;;28.50;9.63;;;;;;;2.65;100.00;96327.28;5056941;28;20203;-72
2022/12/06 08:21:19;;;;;;;30.73;11.17;;;;;;;2.86;100.00;96328.88;5057336;28;20209;-72
2022/12/06 08:23:45;;;;;;;33.13;10.53;;;;;;;2.76;100.00;96330.63;5056579;28;20441;-72
2022/12/06 08:26:14;;;;;;;32.30;10.67;;;;;;;2.76;100.00;96325.44;5057329;28;20224;-73
2022/12/06 08:28:42;;;;;;;31.53;11.47;;;;;;;2.63;100.00;96332.56;5057274;28;20206;-72
2022/12/06 08:31:10;;;;;;;28.00;10.30;;;;;;;2.92;100.00;96328.38;5057094;28;20199;-72
2022/12/06 08:33:36;;;;;;;29.03;11.23;;;;;;;2.84;100.00;96320.41;5057628;28;20201;-73
2022/12/06 08:36:07;;;;;;;32.13;10.77;;;;;;;3.03;100.00;96323.91;5056770;28;20246;-73
2022/12/06 08:38:35;;;;;;;31.03;12.40;;;;;;;2.81;100.00;96325.03;5054541;28;20206;-72
2022/12/06 08:41:02;;;;;;;28.73;10.23;;;;;;;2.74;100.00;96321.31;5056290;28;20713;-73
2022/12/06 08:43:28;;;;;;;24.17;8.77;;;;;;;2.76;100.00;96316.78;5055788;28;20596;-73
2022/12/06 08:45:55;;;;;;;36.13;11.10;;;;;;;2.57;100.00;96320.09;5055586;28;20217;-72
2022/12/06 08:48:21;;;;;;;22.53;8.53;;;;;;;2.63;100.00;96311.75;5055689;28;20473;-73
2022/12/06 08:50:48;;;;;;;26.43;10.10;;;;;;;2.59;100.00;96312.16;5056327;28;20676;-72
2022/12/06 08:53:14;;;;;;;27.17;10.40;;;;;;;2.82;100.00;96314.47;5056114;28;20215;-73
2022/12/06 08:55:42;;;;;;;28.13;10.90;;;;;;;2.78;100.00;96307.88;5055325;28;20247;-73
2022/12/06 08:58:09;;;;;;;27.40;10.07;;;;;;;2.87;100.00;96317.53;5056459;28;20202;-73
2022/12/06 09:00:35;;;;;;;26.93;9.40;;;;;;;2.97;100.00;96328.81;5056120;28;20223;-73
2022/12/06 09:03:02;;;;;;;27.40;10.27;;;;;;;3.17;100.00;96325.34;5055368;28;20705;-73
2022/12/06 09:05:28;;;;;;;26.80;10.40;;;;;;;3.08;100.00;96320.91;5056664;28;20321;-71
2022/12/06 09:07:55;;;;;;;21.70;8.83;;;;;;;3.17;100.00;96322.72;5055955;28;20222;-72
2022/12/06 09:10:21;;;;;;;29.83;11.40;;;;;;;3.10;100.00;96327.63;5055667;28;20215;-72
2022/12/06 09:12:49;;;;;;;32.33;12.30;;;;;;;3.26;100.00;96327.16;5056045;28;20232;-72
2022/12/06 09:15:16;;;;;;;29.93;10.07;;;;;;;3.12;100.00;96327.53;5054670;28;20203;-72
2022/12/06 09:17:42;;;;;;;33.93;11.70;;;;;;;3.21;100.00;96331.97;5055353;28;20477;-72
2022/12/06 09:20:09;;;;;;;27.17;9.20;;;;;;;3.08;100.00;96329.56;5056243;28;20205;-72
2022/12/06 09:22:36;;;;;;;28.60;10.87;;;;;;;3.03;100.00;96330.91;5056123;28;20199;-72
2022/12/06 09:25:02;;;;;;;35.60;12.07;;;;;;;3.19;100.00;96332.06;5054532;28;20207;-72
2022/12/06 09:27:30;;;;;;;26.93;10.77;;;;;;;3.36;100.00;96328.03;5056042;28;20200;-72
2022/12/06 09:29:58;;;;;;;31.30;11.10;;;;;;;3.13;100.00;96329.16;5055454;28;20196;-71
2022/12/06 09:32:24;;;;;;;32.27;12.43;;;;;;;3.15;100.00;96330.69;5055476;28;20212;-72
2022/12/06 09:34:51;;;;;;;30.20;11.13;;;;;;;3.21;100.00;96330.16;5055606;28;20212;-72
2022/12/06 09:37:18;;;;;;;28.57;11.50;;;;;;;3.32;100.00;96331.84;5059689;28;21374;-72
2022/12/06 09:39:48;;;;;;;33.03;10.60;;;;;;;3.52;100.00;96336.19;5059568;28;20223;-72
2022/12/06 09:42:45;;;;;;;38.33;12.53;;;;;;;3.48;100.00;96329.59;5059690;28;20211;-72
2022/12/06 09:45:48;;;;;;;30.37;11.30;;;;;;;3.56;100.00;96321.94;5058853;28;20208;-71
2022/12/06 09:48:44;;;;;;;33.30;11.83;;;;;;;3.53;100.00;96327.41;5059192;28;20935;-72
2022/12/06 09:51:23;;;;;;;33.13;12.30;;;;;;;3.64;100.00;96325.53;5054372;28;20521;-72
2022/12/06 09:54:02;;;;;;;30.63;11.50;;;;;;;3.66;100.00;96316.59;5058859;28;20560;-72
2022/12/06 09:56:36;;;;;;;37.07;12.30;;;;;;;3.82;100.00;96316.94;5059759;28;20232;-72
2022/12/06 09:59:15;;;;;;;34.27;11.60;;;;;;;3.88;100.00;96318.16;5060025;28;20205;-72
2022/12/06 10:01:57;;;;;;;34.03;11.37;;;;;;;3.75;100.00;96315.81;5059568;28;20215;-72
2022/12/06 10:04:46;;;;;;;25.63;10.73;;;;;;;3.57;100.00;96316.59;5059677;28;20208;-72
2022/12/06 10:07:24;;;;;;;39.27;13.93;;;;;;;3.67;100.00;96302.63;5058980;28;20232;-72
2022/12/06 10:10:03;;;;;;;29.53;11.20;;;;;;;3.82;100.00;96303.91;5059428;28;20203;-72
2022/12/06 10:12:43;;;;;;;34.00;12.27;;;;;;;3.79;100.00;96306.78;5059829;28;20596;-71
2022/12/06 10:15:21;;;;;;;26.90;10.83;;;;;;;3.91;100.00;96303.09;5059685;28;20211;-71
2022/12/06 10:18:05;;;;;;;36.97;12.27;;;;;;;3.85;100.00;96295.81;5059469;28;20235;-71
2022/12/06 10:20:38;;;;;;;27.73;11.10;;;;;;;3.77;100.00;96300.88;5058743;28;20205;-72
2022/12/06 10:23:16;;;;;;;38.30;13.20;;;;;;;4.00;100.00;96307.50;5059587;28;20212;-71
2022/12/06 10:25:49;;;;;;;26.53;10.67;;;;;;;3.77;100.00;96300.88;5057868;28;20235;-71
2022/12/06 10:28:22;;;;;;;28.53;11.23;;;;;;;3.92;100.00;96299.53;5059154;28;20203;-72
2022/12/06 10:30:51;;;;;;;28.10;10.43;;;;;;;4.02;100.00;96295.16;5058594;28;20537;-72
2022/12/06 10:33:28;;;;;;;28.93;10.93;;;;;;;4.02;100.00;96300.38;5058634;28;20228;-71
2022/12/06 10:35:59;;;;;;;31.57;11.43;;;;;;;3.97;100.00;96292.13;5058364;28;20232;-71
2022/12/06 10:38:32;;;;;;;32.10;11.73;;;;;;;4.01;100.00;96303.94;5058251;28;20207;-72
2022/12/06 10:41:14;;;;;;;31.20;13.03;;;;;;;4.11;100.00;96291.72;5058563;28;20205;-72
2022/12/06 10:43:50;;;;;;;27.73;10.77;;;;;;;3.99;100.00;96284.16;5058171;28;20672;-71
2022/12/06 10:49:19;;;;;;;29.70;12.67;;;;;;;3.94;100.00;96281.13;5057916;28;20738;-72
2022/12/06 10:51:49;;;;;;;34.70;13.47;;;;;;;4.06;100.00;96280.88;5057956;28;20691;-71
2022/12/06 10:54:23;;;;;;;29.57;11.13;;;;;;;4.15;100.00;96284.44;5057286;28;20202;-72
2022/12/06 10:56:53;;;;;;;32.67;13.00;;;;;;;4.25;100.00;96276.47;5058250;28;20718;-71
2022/12/06 10:59:34;;;;;;;35.73;12.77;;;;;;;4.12;100.00;96279.50;5057883;28;20201;-71
2022/12/06 11:02:13;;;;;;;32.23;11.33;;;;;;;4.04;100.00;96280.19;5058669;28;20203;-71
2022/12/06 11:04:42;;;;;;;22.47;6.90;;;;;;;4.22;100.00;96283.75;5057636;28;20200;-70
2022/12/06 11:07:15;;;;;;;28.23;10.93;;;;;;;4.19;100.00;96280.59;5058083;28;20228;-71
2022/12/06 11:09:44;;;;;;;25.63;9.40;;;;;;;4.01;100.00;96277.84;5058964;28;20208;-72
2022/12/06 11:12:21;;;;;;;22.90;9.47;;;;;;;4.05;100.00;96281.00;5058321;28;20208;-72
2022/12/06 11:14:52;;;;;;;26.17;10.70;;;;;;;4.02;100.00;96273.47;5058020;28;20221;-73
2022/12/06 11:17:23;;;;;;;30.77;10.77;;;;;;;4.11;100.00;96270.88;5058900;28;20228;-72
2022/12/06 11:19:56;;;;;;;30.43;12.07;;;;;;;4.12;100.00;96280.31;5058383;28;20208;-72
2022/12/06 11:22:31;;;;;;;38.87;11.80;;;;;;;4.24;100.00;96274.03;5057802;28;20211;-73
2022/12/06 11:25:05;;;;;;;30.63;11.50;;;;;;;4.29;100.00;96267.41;5058153;28;20238;-72
2022/12/06 11:27:35;;;;;;;29.37;11.10;;;;;;;4.16;100.00;96267.84;5058115;28;20199;-72
2022/12/06 11:30:03;;;;;;;25.87;10.07;;;;;;;4.13;100.00;96262.91;5057908;28;20208;-72
2022/12/06 11:32:30;;;;;;;27.57;10.53;;;;;;;3.96;100.00;96274.84;5057547;28;20207;-72
2022/12/06 11:35:01;;;;;;;31.67;11.13;;;;;;;3.91;100.00;96265.78;5058116;28;20201;-72
2022/12/06 11:37:31;;;;;;;30.00;9.97;;;;;;;4.14;100.00;96273.19;5057280;28;20234;-72
2022/12/06 11:40:06;;;;;;;25.47;10.10;;;;;;;4.16;100.00;96255.59;5058477;28;20213;-73
2022/12/06 11:42:33;;;;;;;29.37;10.90;;;;;;;4.25;100.00;96254.78;5057823;28;20663;-73
2022/12/06 11:45:06;;;;;;;27.60;10.00;;;;;;;4.22;100.00;96247.25;5057077;28;20208;-73
2022/12/06 11:47:33;;;;;;;23.97;8.90;;;;;;;4.10;100.00;96256.19;5057950;28;20200;-72
2022/12/06 11:50:02;;;;;;;23.13;9.83;;;;;;;4.39;100.00;96251.75;5057752;28;20209;-72
2022/12/06 11:52:35;;;;;;;22.83;9.90;;;;;;;4.27;100.00;96250.25;5057570;28;20233;-72
2022/12/06 11:55:04;;;;;;;26.70;10.63;;;;;;;4.32;100.00;96245.47;5057611;28;20211;-72